createdAt,value
2023-01-29T00:00:30.547Z,0.40
2023-01-29T00:15:32.596Z,0.50
2023-01-29T00:30:35.492Z,0.40
2023-01-29T00:45:37.579Z,0.30
2023-01-29T01:00:39.526Z,0.30
2023-01-29T01:15:41.442Z,0.20
2023-01-29T01:30:43.412Z,0.00
2023-01-29T01:45:46.834Z,0.00
2023-01-29T02:00:49.114Z,0.20
2023-01-29T02:15:51.059Z,0.40
2023-01-29T02:31:19.373Z,0.50
2023-01-29T02:46:42.483Z,0.50
2023-01-29T03:01:56.255Z,0.60
2023-01-29T03:16:58.843Z,0.60
2023-01-29T03:32:09.505Z,0.60
2023-01-29T03:47:27.510Z,0.60
2023-01-29T04:02:34.636Z,0.60
2023-01-29T04:17:40.718Z,0.60
2023-01-29T04:32:57.765Z,0.50
2023-01-29T04:48:08.235Z,0.50
2023-01-29T05:03:14.504Z,0.50
2023-01-29T05:18:16.705Z,0.50
2023-01-29T05:33:28.010Z,0.40
2023-01-29T05:48:31.466Z,0.30
2023-01-29T06:03:33.397Z,0.40
2023-01-29T06:18:36.397Z,0.20
2023-01-29T06:33:38.345Z,0.20
2023-01-29T06:48:40.250Z,0.20
2023-01-29T07:03:42.820Z,0.20
2023-01-29T07:18:44.802Z,0.30
2023-01-29T07:33:46.922Z,0.10
2023-01-29T07:48:48.829Z,0.40
2023-01-29T08:03:51.505Z,0.50
2023-01-29T08:18:53.502Z,0.80
2023-01-29T08:33:55.813Z,0.70
2023-01-29T08:48:57.823Z,0.80
2023-01-29T09:03:59.730Z,1.00
2023-01-29T09:19:01.761Z,1.00
2023-01-29T09:34:03.704Z,1.20
2023-01-29T09:49:27.058Z,1.60
2023-01-29T10:04:47.629Z,1.40
2023-01-29T10:20:08.346Z,1.90
2023-01-29T10:35:31.811Z,2.80
2023-01-29T10:50:50.824Z,3.10
2023-01-29T11:06:11.888Z,3.00
2023-01-29T11:21:14.812Z,3.20
2023-01-29T11:36:34.705Z,3.10
2023-01-29T11:51:38.639Z,3.10
2023-01-29T12:06:44.157Z,3.30
2023-01-29T12:22:05.005Z,3.20
2023-01-29T12:37:18.374Z,3.30
2023-01-29T12:52:33.645Z,3.20
2023-01-29T13:07:46.189Z,3.10
2023-01-29T13:22:49.856Z,3.40
2023-01-29T13:37:55.008Z,3.20
2023-01-29T13:53:02.320Z,3.30
2023-01-29T14:08:06.490Z,3.40
2023-01-29T14:23:18.734Z,3.30
2023-01-29T14:38:26.199Z,3.30
2023-01-29T14:53:48.452Z,3.20
2023-01-29T15:09:02.889Z,3.20
2023-01-29T15:24:07.109Z,3.10
2023-01-29T15:39:23.697Z,2.90
2023-01-29T15:54:30.329Z,2.80
2023-01-29T16:09:32.435Z,2.70
2023-01-29T16:24:38.141Z,2.80
2023-01-29T16:39:45.703Z,2.70
2023-01-29T16:54:47.719Z,2.70
2023-01-29T17:09:56.480Z,2.80
2023-01-29T17:24:58.432Z,2.70
2023-01-29T17:40:01.955Z,2.70
2023-01-29T17:55:05.537Z,2.60
2023-01-29T18:10:13.289Z,2.40
2023-01-29T18:25:16.364Z,2.30
2023-01-29T18:40:19.005Z,2.30
2023-01-29T18:55:21.602Z,2.30
2023-01-29T19:10:23.619Z,2.20
2023-01-29T19:25:25.718Z,2.30
2023-01-29T19:40:27.728Z,2.30
2023-01-29T19:55:29.705Z,2.20
2023-01-29T20:10:31.691Z,2.00
2023-01-29T20:25:33.731Z,2.00
2023-01-29T20:40:35.727Z,1.50
2023-01-29T20:55:37.713Z,1.30
2023-01-29T21:10:40.645Z,1.20
2023-01-29T21:25:45.187Z,1.20
2023-01-29T21:40:47.133Z,1.00
2023-01-29T21:55:49.049Z,1.00
2023-01-29T22:10:51.004Z,0.90
2023-01-29T22:25:53.007Z,0.70
2023-01-29T22:40:56.312Z,0.60
2023-01-29T22:55:58.219Z,0.50
2023-01-29T23:11:15.178Z,0.50
2023-01-29T23:26:35.969Z,0.70
2023-01-29T23:41:38.028Z,0.80
2023-01-29T23:56:40.140Z,0.80
